sensor_id;sensor_type;location;lat;lon;timestamp;P1;durP1;ratioP1;P2;durP2;ratioP2
73023;SDS011;61199;47.526;8.538;2023-03-08T00:00:12;29.67;;;14.80;;
73023;SDS011;61199;47.526;8.538;2023-03-08T00:02:41;31.70;;;16.57;;
73023;SDS011;61199;47.526;8.538;2023-03-08T00:05:07;29.67;;;14.40;;
73023;SDS011;61199;47.526;8.538;2023-03-08T00:07:34;30.93;;;14.27;;
73023;SDS011;61199;47.526;8.538;2023-03-08T00:10:01;32.40;;;15.70;;
73023;SDS011;61199;47.526;8.538;2023-03-08T00:12:27;26.37;;;13.77;;
73023;SDS011;61199;47.526;8.538;2023-03-08T00:14:54;29.70;;;13.47;;
73023;SDS011;61199;47.526;8.538;2023-03-08T00:17:20;29.60;;;14.63;;
73023;SDS011;61199;47.526;8.538;2023-03-08T00:19:47;31.13;;;14.23;;
73023;SDS011;61199;47.526;8.538;2023-03-08T00:22:16;32.40;;;14.10;;
73023;SDS011;61199;47.526;8.538;2023-03-08T00:24:43;33.47;;;14.60;;
73023;SDS011;61199;47.526;8.538;2023-03-08T00:27:09;30.13;;;14.83;;
73023;SDS011;61199;47.526;8.538;2023-03-08T00:29:35;36.90;;;13.90;;
73023;SDS011;61199;47.526;8.538;2023-03-08T00:32:02;28.23;;;13.90;;
73023;SDS011;61199;47.526;8.538;2023-03-08T00:34:28;32.80;;;13.90;;
73023;SDS011;61199;47.526;8.538;2023-03-08T00:36:54;31.10;;;14.10;;
73023;SDS011;61199;47.526;8.538;2023-03-08T00:39:21;36.80;;;15.87;;
73023;SDS011;61199;47.526;8.538;2023-03-08T00:41:47;31.43;;;14.50;;
73023;SDS011;61199;47.526;8.538;2023-03-08T00:44:14;33.33;;;15.57;;
73023;SDS011;61199;47.526;8.538;2023-03-08T00:46:40;31.50;;;14.73;;
73023;SDS011;61199;47.526;8.538;2023-03-08T00:49:07;34.07;;;16.67;;
73023;SDS011;61199;47.526;8.538;2023-03-08T00:51:34;35.17;;;16.57;;
73023;SDS011;61199;47.526;8.538;2023-03-08T00:54:00;41.10;;;14.90;;
73023;SDS011;61199;47.526;8.538;2023-03-08T00:56:27;36.53;;;15.43;;
73023;SDS011;61199;47.526;8.538;2023-03-08T00:58:53;33.90;;;14.40;;
73023;SDS011;61199;47.526;8.538;2023-03-08T01:01:20;34.93;;;15.40;;
73023;SDS011;61199;47.526;8.538;2023-03-08T01:03:46;33.30;;;15.67;;
73023;SDS011;61199;47.526;8.538;2023-03-08T01:06:13;29.80;;;15.03;;
73023;SDS011;61199;47.526;8.538;2023-03-08T01:08:40;30.17;;;14.93;;
73023;SDS011;61199;47.526;8.538;2023-03-08T01:11:13;32.40;;;14.90;;
73023;SDS011;61199;47.526;8.538;2023-03-08T01:13:48;29.93;;;15.00;;
73023;SDS011;61199;47.526;8.538;2023-03-08T01:16:17;29.50;;;14.30;;
73023;SDS011;61199;47.526;8.538;2023-03-08T01:18:51;31.07;;;14.17;;
73023;SDS011;61199;47.526;8.538;2023-03-08T01:21:17;41.77;;;15.27;;
73023;SDS011;61199;47.526;8.538;2023-03-08T01:23:43;36.63;;;16.23;;
73023;SDS011;61199;47.526;8.538;2023-03-08T01:26:11;28.00;;;15.30;;
73023;SDS011;61199;47.526;8.538;2023-03-08T01:28:42;32.43;;;15.73;;
73023;SDS011;61199;47.526;8.538;2023-03-08T01:31:11;31.63;;;14.90;;
73023;SDS011;61199;47.526;8.538;2023-03-08T01:33:40;32.33;;;14.33;;
73023;SDS011;61199;47.526;8.538;2023-03-08T01:36:09;34.50;;;14.80;;
73023;SDS011;61199;47.526;8.538;2023-03-08T01:38:37;28.60;;;14.27;;
73023;SDS011;61199;47.526;8.538;2023-03-08T01:41:04;34.47;;;16.13;;
73023;SDS011;61199;47.526;8.538;2023-03-08T01:43:33;27.23;;;14.77;;
73023;SDS011;61199;47.526;8.538;2023-03-08T01:48:40;26.07;;;13.00;;
73023;SDS011;61199;47.526;8.538;2023-03-08T01:51:11;33.63;;;16.13;;
73023;SDS011;61199;47.526;8.538;2023-03-08T01:53:41;29.10;;;15.27;;
73023;SDS011;61199;47.526;8.538;2023-03-08T01:56:08;27.90;;;13.47;;
73023;SDS011;61199;47.526;8.538;2023-03-08T01:58:40;30.83;;;14.73;;
73023;SDS011;61199;47.526;8.538;2023-03-08T02:01:09;33.07;;;16.23;;
73023;SDS011;61199;47.526;8.538;2023-03-08T02:03:35;33.83;;;14.97;;
73023;SDS011;61199;47.526;8.538;2023-03-08T02:06:02;32.20;;;14.40;;
73023;SDS011;61199;47.526;8.538;2023-03-08T02:08:30;32.17;;;15.00;;
73023;SDS011;61199;47.526;8.538;2023-03-08T02:10:57;33.07;;;15.17;;
73023;SDS011;61199;47.526;8.538;2023-03-08T02:13:25;35.77;;;14.60;;
73023;SDS011;61199;47.526;8.538;2023-03-08T02:15:51;30.90;;;15.00;;
73023;SDS011;61199;47.526;8.538;2023-03-08T02:18:21;29.83;;;14.50;;
73023;SDS011;61199;47.526;8.538;2023-03-08T02:20:48;29.57;;;14.50;;
73023;SDS011;61199;47.526;8.538;2023-03-08T02:23:18;32.90;;;14.63;;
73023;SDS011;61199;47.526;8.538;2023-03-08T02:26:20;30.80;;;14.47;;
73023;SDS011;61199;47.526;8.538;2023-03-08T02:28:39;34.93;;;14.83;;
73023;SDS011;61199;47.526;8.538;2023-03-08T02:31:06;31.63;;;14.93;;
73023;SDS011;61199;47.526;8.538;2023-03-08T02:33:32;30.70;;;14.13;;
73023;SDS011;61199;47.526;8.538;2023-03-08T02:36:00;27.93;;;15.17;;
73023;SDS011;61199;47.526;8.538;2023-03-08T02:38:28;30.10;;;14.83;;
73023;SDS011;61199;47.526;8.538;2023-03-08T02:40:55;30.67;;;14.90;;
73023;SDS011;61199;47.526;8.538;2023-03-08T02:43:21;27.40;;;14.63;;
73023;SDS011;61199;47.526;8.538;2023-03-08T02:45:47;31.37;;;14.40;;
73023;SDS011;61199;47.526;8.538;2023-03-08T02:48:14;27.50;;;14.47;;
73023;SDS011;61199;47.526;8.538;2023-03-08T02:50:41;24.30;;;13.10;;
73023;SDS011;61199;47.526;8.538;2023-03-08T02:53:07;34.50;;;15.23;;
73023;SDS011;61199;47.526;8.538;2023-03-08T02:55:34;28.03;;;14.50;;
73023;SDS011;61199;47.526;8.538;2023-03-08T02:58:05;30.53;;;14.83;;
73023;SDS011;61199;47.526;8.538;2023-03-08T03:00:33;32.63;;;15.60;;
73023;SDS011;61199;47.526;8.538;2023-03-08T03:03:00;28.40;;;13.90;;
73023;SDS011;61199;47.526;8.538;2023-03-08T03:05:26;29.17;;;15.40;;
73023;SDS011;61199;47.526;8.538;2023-03-08T03:07:52;32.73;;;16.27;;
73023;SDS011;61199;47.526;8.538;2023-03-08T03:10:20;26.80;;;13.33;;
73023;SDS011;61199;47.526;8.538;2023-03-08T03:12:46;31.70;;;15.33;;
73023;SDS011;61199;47.526;8.538;2023-03-08T03:15:13;26.70;;;14.60;;
73023;SDS011;61199;47.526;8.538;2023-03-08T03:17:39;31.80;;;14.80;;
73023;SDS011;61199;47.526;8.538;2023-03-08T03:20:06;33.93;;;14.97;;
73023;SDS011;61199;47.526;8.538;2023-03-08T03:22:35;33.07;;;14.97;;
73023;SDS011;61199;47.526;8.538;2023-03-08T03:25:02;26.93;;;13.93;;
73023;SDS011;61199;47.526;8.538;2023-03-08T03:27:29;31.40;;;14.87;;
73023;SDS011;61199;47.526;8.538;2023-03-08T03:29:56;35.17;;;16.20;;
73023;SDS011;61199;47.526;8.538;2023-03-08T03:32:22;31.53;;;15.20;;
73023;SDS011;61199;47.526;8.538;2023-03-08T03:34:48;27.40;;;13.53;;
73023;SDS011;61199;47.526;8.538;2023-03-08T03:37:15;31.33;;;15.53;;
73023;SDS011;61199;47.526;8.538;2023-03-08T03:39:41;31.73;;;15.10;;
73023;SDS011;61199;47.526;8.538;2023-03-08T03:42:07;30.47;;;14.50;;
73023;SDS011;61199;47.526;8.538;2023-03-08T03:44:34;31.37;;;15.03;;
73023;SDS011;61199;47.526;8.538;2023-03-08T03:47:00;26.67;;;14.67;;
73023;SDS011;61199;47.526;8.538;2023-03-08T03:49:27;32.23;;;13.90;;
73023;SDS011;61199;47.526;8.538;2023-03-08T03:51:53;32.80;;;15.73;;
73023;SDS011;61199;47.526;8.538;2023-03-08T03:54:20;35.47;;;14.50;;
73023;SDS011;61199;47.526;8.538;2023-03-08T03:56:46;30.60;;;14.80;;
73023;SDS011;61199;47.526;8.538;2023-03-08T03:59:12;26.13;;;13.80;;
73023;SDS011;61199;47.526;8.538;2023-03-08T04:01:39;34.27;;;15.40;;
73023;SDS011;61199;47.526;8.538;2023-03-08T04:04:05;31.53;;;16.50;;
73023;SDS011;61199;47.526;8.538;2023-03-08T04:06:32;28.10;;;15.50;;
73023;SDS011;61199;47.526;8.538;2023-03-08T04:09:00;40.00;;;16.10;;
73023;SDS011;61199;47.526;8.538;2023-03-08T04:11:31;30.10;;;15.80;;
73023;SDS011;61199;47.526;8.538;2023-03-08T04:13:59;37.33;;;16.00;;
73023;SDS011;61199;47.526;8.538;2023-03-08T04:16:30;32.53;;;15.70;;
73023;SDS011;61199;47.526;8.538;2023-03-08T04:18:59;36.23;;;17.50;;
73023;SDS011;61199;47.526;8.538;2023-03-08T04:21:27;35.20;;;17.63;;
73023;SDS011;61199;47.526;8.538;2023-03-08T04:23:54;34.87;;;16.60;;
73023;SDS011;61199;47.526;8.538;2023-03-08T04:26:21;32.90;;;16.03;;
73023;SDS011;61199;47.526;8.538;2023-03-08T04:28:48;30.07;;;14.43;;
73023;SDS011;61199;47.526;8.538;2023-03-08T04:31:15;29.97;;;13.63;;
73023;SDS011;61199;47.526;8.538;2023-03-08T04:33:44;29.40;;;14.17;;
73023;SDS011;61199;47.526;8.538;2023-03-08T04:36:11;26.37;;;13.27;;
73023;SDS011;61199;47.526;8.538;2023-03-08T04:38:38;22.07;;;11.30;;
73023;SDS011;61199;47.526;8.538;2023-03-08T04:41:05;28.87;;;15.30;;
73023;SDS011;61199;47.526;8.538;2023-03-08T04:43:38;27.03;;;12.30;;
73023;SDS011;61199;47.526;8.538;2023-03-08T04:46:11;26.40;;;11.80;;
73023;SDS011;61199;47.526;8.538;2023-03-08T04:48:37;20.77;;;11.33;;
73023;SDS011;61199;47.526;8.538;2023-03-08T04:51:04;23.93;;;12.40;;
73023;SDS011;61199;47.526;8.538;2023-03-08T04:53:32;22.67;;;10.90;;
73023;SDS011;61199;47.526;8.538;2023-03-08T04:55:59;28.50;;;10.70;;
73023;SDS011;61199;47.526;8.538;2023-03-08T04:58:26;24.10;;;11.60;;
73023;SDS011;61199;47.526;8.538;2023-03-08T05:00:54;21.03;;;10.60;;
73023;SDS011;61199;47.526;8.538;2023-03-08T05:03:20;19.20;;;9.13;;
73023;SDS011;61199;47.526;8.538;2023-03-08T05:05:48;20.13;;;9.47;;
73023;SDS011;61199;47.526;8.538;2023-03-08T05:08:16;25.63;;;11.50;;
73023;SDS011;61199;47.526;8.538;2023-03-08T05:10:47;19.00;;;9.67;;
73023;SDS011;61199;47.526;8.538;2023-03-08T05:13:26;18.93;;;9.73;;
73023;SDS011;61199;47.526;8.538;2023-03-08T05:15:55;19.00;;;9.07;;
73023;SDS011;61199;47.526;8.538;2023-03-08T05:18:22;15.70;;;9.03;;
73023;SDS011;61199;47.526;8.538;2023-03-08T05:20:53;17.70;;;9.07;;
73023;SDS011;61199;47.526;8.538;2023-03-08T05:23:23;19.67;;;9.13;;
73023;SDS011;61199;47.526;8.538;2023-03-08T05:25:54;16.67;;;9.20;;
73023;SDS011;61199;47.526;8.538;2023-03-08T05:28:22;20.93;;;8.80;;
73023;SDS011;61199;47.526;8.538;2023-03-08T05:30:55;19.43;;;8.07;;
73023;SDS011;61199;47.526;8.538;2023-03-08T05:33:25;19.40;;;9.73;;
73023;SDS011;61199;47.526;8.538;2023-03-08T05:35:52;17.00;;;8.50;;
73023;SDS011;61199;47.526;8.538;2023-03-08T05:38:22;19.00;;;10.03;;
73023;SDS011;61199;47.526;8.538;2023-03-08T05:40:49;21.30;;;10.00;;
73023;SDS011;61199;47.526;8.538;2023-03-08T05:43:16;14.43;;;8.30;;
73023;SDS011;61199;47.526;8.538;2023-03-08T05:45:43;16.13;;;9.17;;
73023;SDS011;61199;47.526;8.538;2023-03-08T05:48:19;14.53;;;8.10;;
73023;SDS011;61199;47.526;8.538;2023-03-08T05:50:46;20.03;;;9.60;;
73023;SDS011;61199;47.526;8.538;2023-03-08T05:53:12;19.20;;;8.83;;
73023;SDS011;61199;47.526;8.538;2023-03-08T05:55:38;21.40;;;9.10;;
73023;SDS011;61199;47.526;8.538;2023-03-08T05:58:05;14.77;;;8.40;;
73023;SDS011;61199;47.526;8.538;2023-03-08T06:00:31;18.33;;;9.00;;
73023;SDS011;61199;47.526;8.538;2023-03-08T06:02:58;22.20;;;9.27;;
73023;SDS011;61199;47.526;8.538;2023-03-08T06:05:25;21.60;;;9.60;;
73023;SDS011;61199;47.526;8.538;2023-03-08T06:07:51;22.03;;;9.27;;
73023;SDS011;61199;47.526;8.538;2023-03-08T06:10:17;14.77;;;7.87;;
73023;SDS011;61199;47.526;8.538;2023-03-08T06:12:44;14.63;;;8.40;;
73023;SDS011;61199;47.526;8.538;2023-03-08T06:15:10;23.00;;;8.37;;
73023;SDS011;61199;47.526;8.538;2023-03-08T06:17:38;15.70;;;8.07;;
73023;SDS011;61199;47.526;8.538;2023-03-08T06:20:06;17.13;;;8.30;;
73023;SDS011;61199;47.526;8.538;2023-03-08T06:22:33;15.20;;;8.03;;
73023;SDS011;61199;47.526;8.538;2023-03-08T06:25:00;18.63;;;7.90;;
73023;SDS011;61199;47.526;8.538;2023-03-08T06:27:27;16.33;;;7.37;;
73023;SDS011;61199;47.526;8.538;2023-03-08T06:29:53;14.80;;;7.90;;
73023;SDS011;61199;47.526;8.538;2023-03-08T06:32:20;14.00;;;8.13;;
73023;SDS011;61199;47.526;8.538;2023-03-08T06:34:47;15.13;;;7.47;;
73023;SDS011;61199;47.526;8.538;2023-03-08T06:37:13;15.47;;;7.87;;
73023;SDS011;61199;47.526;8.538;2023-03-08T06:39:40;13.43;;;7.03;;
73023;SDS011;61199;47.526;8.538;2023-03-08T06:42:06;14.00;;;7.60;;
73023;SDS011;61199;47.526;8.538;2023-03-08T06:44:32;17.10;;;7.30;;
73023;SDS011;61199;47.526;8.538;2023-03-08T06:46:59;15.37;;;7.10;;
73023;SDS011;61199;47.526;8.538;2023-03-08T06:49:25;11.90;;;7.30;;
73023;SDS011;61199;47.526;8.538;2023-03-08T06:51:51;11.13;;;6.70;;
73023;SDS011;61199;47.526;8.538;2023-03-08T06:54:18;15.73;;;7.13;;
73023;SDS011;61199;47.526;8.538;2023-03-08T06:56:45;14.77;;;7.60;;
73023;SDS011;61199;47.526;8.538;2023-03-08T06:59:12;20.20;;;8.40;;
73023;SDS011;61199;47.526;8.538;2023-03-08T07:01:39;12.83;;;6.90;;
73023;SDS011;61199;47.526;8.538;2023-03-08T07:04:06;14.27;;;7.13;;
73023;SDS011;61199;47.526;8.538;2023-03-08T07:06:33;12.03;;;6.97;;
73023;SDS011;61199;47.526;8.538;2023-03-08T07:08:59;14.73;;;6.90;;
73023;SDS011;61199;47.526;8.538;2023-03-08T07:11:25;15.27;;;7.13;;
73023;SDS011;61199;47.526;8.538;2023-03-08T07:13:54;27.10;;;7.57;;
73023;SDS011;61199;47.526;8.538;2023-03-08T07:16:20;15.60;;;7.23;;
73023;SDS011;61199;47.526;8.538;2023-03-08T07:18:46;12.47;;;6.90;;
73023;SDS011;61199;47.526;8.538;2023-03-08T07:21:13;13.40;;;7.37;;
73023;SDS011;61199;47.526;8.538;2023-03-08T07:23:39;13.57;;;6.10;;
73023;SDS011;61199;47.526;8.538;2023-03-08T07:26:06;13.90;;;7.20;;
73023;SDS011;61199;47.526;8.538;2023-03-08T07:28:33;14.70;;;6.87;;
73023;SDS011;61199;47.526;8.538;2023-03-08T07:31:00;14.03;;;7.10;;
73023;SDS011;61199;47.526;8.538;2023-03-08T07:33:26;19.43;;;7.60;;
73023;SDS011;61199;47.526;8.538;2023-03-08T07:35:53;16.53;;;7.17;;
73023;SDS011;61199;47.526;8.538;2023-03-08T07:38:19;16.27;;;7.53;;
73023;SDS011;61199;47.526;8.538;2023-03-08T07:40:52;13.03;;;7.17;;
73023;SDS011;61199;47.526;8.538;2023-03-08T07:43:19;10.50;;;6.40;;
73023;SDS011;61199;47.526;8.538;2023-03-08T07:45:45;13.43;;;7.40;;
73023;SDS011;61199;47.526;8.538;2023-03-08T07:48:12;12.83;;;6.47;;
73023;SDS011;61199;47.526;8.538;2023-03-08T07:50:38;12.77;;;6.77;;
73023;SDS011;61199;47.526;8.538;2023-03-08T07:53:04;16.67;;;7.30;;
73023;SDS011;61199;47.526;8.538;2023-03-08T07:55:32;19.47;;;7.70;;
73023;SDS011;61199;47.526;8.538;2023-03-08T07:57:59;10.60;;;6.10;;
73023;SDS011;61199;47.526;8.538;2023-03-08T08:00:25;11.60;;;6.50;;
73023;SDS011;61199;47.526;8.538;2023-03-08T08:02:52;15.40;;;6.37;;
73023;SDS011;61199;47.526;8.538;2023-03-08T08:05:19;12.53;;;6.77;;
73023;SDS011;61199;47.526;8.538;2023-03-08T08:07:51;10.30;;;6.23;;
73023;SDS011;61199;47.526;8.538;2023-03-08T08:10:17;15.00;;;7.43;;
73023;SDS011;61199;47.526;8.538;2023-03-08T08:12:43;12.20;;;6.60;;
73023;SDS011;61199;47.526;8.538;2023-03-08T08:15:10;11.80;;;6.20;;
73023;SDS011;61199;47.526;8.538;2023-03-08T08:17:37;13.20;;;6.83;;
73023;SDS011;61199;47.526;8.538;2023-03-08T08:20:03;8.77;;;5.73;;
73023;SDS011;61199;47.526;8.538;2023-03-08T08:22:35;14.73;;;6.67;;
73023;SDS011;61199;47.526;8.538;2023-03-08T08:25:03;10.90;;;5.50;;
73023;SDS011;61199;47.526;8.538;2023-03-08T08:27:30;9.80;;;5.50;;
73023;SDS011;61199;47.526;8.538;2023-03-08T08:29:57;12.83;;;6.60;;
73023;SDS011;61199;47.526;8.538;2023-03-08T08:32:24;13.20;;;6.03;;
73023;SDS011;61199;47.526;8.538;2023-03-08T08:34:51;11.47;;;5.77;;
73023;SDS011;61199;47.526;8.538;2023-03-08T08:37:17;13.90;;;6.50;;
73023;SDS011;61199;47.526;8.538;2023-03-08T08:39:44;11.70;;;6.43;;
73023;SDS011;61199;47.526;8.538;2023-03-08T08:42:10;10.93;;;6.07;;
73023;SDS011;61199;47.526;8.538;2023-03-08T08:44:36;10.47;;;5.57;;
73023;SDS011;61199;47.526;8.538;2023-03-08T08:47:03;14.80;;;5.97;;
73023;SDS011;61199;47.526;8.538;2023-03-08T08:49:29;15.03;;;6.80;;
73023;SDS011;61199;47.526;8.538;2023-03-08T08:51:57;9.50;;;5.40;;
73023;SDS011;61199;47.526;8.538;2023-03-08T08:54:23;10.23;;;5.67;;
73023;SDS011;61199;47.526;8.538;2023-03-08T08:56:49;13.70;;;6.03;;
73023;SDS011;61199;47.526;8.538;2023-03-08T08:59:16;9.33;;;4.87;;
73023;SDS011;61199;47.526;8.538;2023-03-08T09:01:42;6.23;;;3.80;;
73023;SDS011;61199;47.526;8.538;2023-03-08T09:04:10;16.40;;;4.43;;
73023;SDS011;61199;47.526;8.538;2023-03-08T09:06:38;7.43;;;4.40;;
73023;SDS011;61199;47.526;8.538;2023-03-08T09:09:05;7.40;;;3.93;;
73023;SDS011;61199;47.526;8.538;2023-03-08T09:11:32;8.70;;;4.13;;
73023;SDS011;61199;47.526;8.538;2023-03-08T09:14:13;7.90;;;4.00;;
73023;SDS011;61199;47.526;8.538;2023-03-08T09:16:40;7.53;;;4.27;;
73023;SDS011;61199;47.526;8.538;2023-03-08T09:19:06;9.00;;;4.50;;
73023;SDS011;61199;47.526;8.538;2023-03-08T09:21:33;12.37;;;4.80;;
73023;SDS011;61199;47.526;8.538;2023-03-08T09:24:01;9.03;;;4.47;;
73023;SDS011;61199;47.526;8.538;2023-03-08T09:26:30;6.77;;;4.10;;
73023;SDS011;61199;47.526;8.538;2023-03-08T09:28:57;9.33;;;3.83;;
73023;SDS011;61199;47.526;8.538;2023-03-08T09:31:24;8.50;;;4.67;;
73023;SDS011;61199;47.526;8.538;2023-03-08T09:33:51;6.63;;;4.27;;
73023;SDS011;61199;47.526;8.538;2023-03-08T09:36:17;9.03;;;4.23;;
73023;SDS011;61199;47.526;8.538;2023-03-08T09:38:45;7.43;;;3.93;;
73023;SDS011;61199;47.526;8.538;2023-03-08T09:41:19;7.23;;;4.30;;
73023;SDS011;61199;47.526;8.538;2023-03-08T09:49:45;7.70;;;4.10;;
73023;SDS011;61199;47.526;8.538;2023-03-08T09:54:55;6.30;;;4.23;;
73023;SDS011;61199;47.526;8.538;2023-03-08T09:57:25;9.60;;;4.57;;
73023;SDS011;61199;47.526;8.538;2023-03-08T09:59:56;8.00;;;4.63;;
73023;SDS011;61199;47.526;8.538;2023-03-08T10:08:10;7.50;;;3.90;;
73023;SDS011;61199;47.526;8.538;2023-03-08T10:13:33;7.17;;;3.80;;
73023;SDS011;61199;47.526;8.538;2023-03-08T10:16:04;10.60;;;4.00;;
73023;SDS011;61199;47.526;8.538;2023-03-08T10:21:14;6.63;;;4.33;;
73023;SDS011;61199;47.526;8.538;2023-03-08T10:23:43;4.97;;;3.53;;
73023;SDS011;61199;47.526;8.538;2023-03-08T10:26:12;4.50;;;3.37;;
73023;SDS011;61199;47.526;8.538;2023-03-08T10:28:40;5.20;;;2.87;;
73023;SDS011;61199;47.526;8.538;2023-03-08T10:31:15;5.47;;;3.30;;
73023;SDS011;61199;47.526;8.538;2023-03-08T10:33:44;5.13;;;3.40;;
73023;SDS011;61199;47.526;8.538;2023-03-08T10:36:18;7.10;;;3.20;;
73023;SDS011;61199;47.526;8.538;2023-03-08T10:39:00;4.87;;;2.20;;
73023;SDS011;61199;47.526;8.538;2023-03-08T10:41:31;3.87;;;2.40;;
73023;SDS011;61199;47.526;8.538;2023-03-08T10:44:05;2.90;;;2.17;;
73023;SDS011;61199;47.526;8.538;2023-03-08T10:46:44;4.13;;;2.40;;
73023;SDS011;61199;47.526;8.538;2023-03-08T10:49:16;4.10;;;2.40;;
73023;SDS011;61199;47.526;8.538;2023-03-08T10:51:50;4.83;;;2.63;;
73023;SDS011;61199;47.526;8.538;2023-03-08T10:54:18;3.53;;;2.23;;
73023;SDS011;61199;47.526;8.538;2023-03-08T10:56:52;3.73;;;2.00;;
73023;SDS011;61199;47.526;8.538;2023-03-08T10:59:20;3.03;;;2.10;;
73023;SDS011;61199;47.526;8.538;2023-03-08T11:01:55;2.97;;;2.00;;
73023;SDS011;61199;47.526;8.538;2023-03-08T11:04:25;2.67;;;2.10;;
73023;SDS011;61199;47.526;8.538;2023-03-08T11:06:53;4.40;;;2.00;;
73023;SDS011;61199;47.526;8.538;2023-03-08T11:09:27;3.60;;;2.00;;
73023;SDS011;61199;47.526;8.538;2023-03-08T11:11:58;2.77;;;2.30;;
73023;SDS011;61199;47.526;8.538;2023-03-08T11:14:25;4.40;;;2.00;;
73023;SDS011;61199;47.526;8.538;2023-03-08T11:22:27;3.20;;;2.00;;
73023;SDS011;61199;47.526;8.538;2023-03-08T11:28:08;3.10;;;1.77;;
73023;SDS011;61199;47.526;8.538;2023-03-08T11:37:40;1.50;;;1.23;;
73023;SDS011;61199;47.526;8.538;2023-03-08T11:39:53;3.93;;;1.93;;
73023;SDS011;61199;47.526;8.538;2023-03-08T11:42:41;3.60;;;1.50;;
73023;SDS011;61199;47.526;8.538;2023-03-08T11:45:22;2.63;;;1.93;;
73023;SDS011;61199;47.526;8.538;2023-03-08T11:50:39;2.10;;;1.50;;
73023;SDS011;61199;47.526;8.538;2023-03-08T11:53:48;1.87;;;1.20;;
73023;SDS011;61199;47.526;8.538;2023-03-08T11:56:12;6.60;;;1.40;;
73023;SDS011;61199;47.526;8.538;2023-03-08T12:01:51;4.53;;;3.40;;
73023;SDS011;61199;47.526;8.538;2023-03-08T12:07:37;2.90;;;1.30;;
73023;SDS011;61199;47.526;8.538;2023-03-08T12:12:51;3.10;;;1.40;;
73023;SDS011;61199;47.526;8.538;2023-03-08T12:15:28;3.27;;;1.60;;
73023;SDS011;61199;47.526;8.538;2023-03-08T12:18:15;2.00;;;1.40;;
73023;SDS011;61199;47.526;8.538;2023-03-08T12:20:47;3.43;;;1.60;;
73023;SDS011;61199;47.526;8.538;2023-03-08T12:26:09;4.53;;;2.03;;
73023;SDS011;61199;47.526;8.538;2023-03-08T12:28:45;1.40;;;1.20;;
73023;SDS011;61199;47.526;8.538;2023-03-08T12:31:21;4.63;;;1.40;;
73023;SDS011;61199;47.526;8.538;2023-03-08T12:33:55;2.17;;;1.23;;
73023;SDS011;61199;47.526;8.538;2023-03-08T12:36:37;2.47;;;1.40;;
73023;SDS011;61199;47.526;8.538;2023-03-08T12:39:07;2.20;;;1.23;;
73023;SDS011;61199;47.526;8.538;2023-03-08T12:41:35;3.53;;;1.70;;
73023;SDS011;61199;47.526;8.538;2023-03-08T12:44:03;1.70;;;1.30;;
73023;SDS011;61199;47.526;8.538;2023-03-08T12:49:51;5.37;;;1.30;;
73023;SDS011;61199;47.526;8.538;2023-03-08T12:52:26;1.83;;;1.40;;
73023;SDS011;61199;47.526;8.538;2023-03-08T12:55:01;3.33;;;1.50;;
73023;SDS011;61199;47.526;8.538;2023-03-08T12:57:33;4.13;;;1.73;;
73023;SDS011;61199;47.526;8.538;2023-03-08T13:00:27;1.70;;;1.33;;
73023;SDS011;61199;47.526;8.538;2023-03-08T13:18:44;1.60;;;1.27;;
73023;SDS011;61199;47.526;8.538;2023-03-08T13:26:36;4.70;;;1.20;;
73023;SDS011;61199;47.526;8.538;2023-03-08T13:29:17;1.93;;;1.43;;
73023;SDS011;61199;47.526;8.538;2023-03-08T13:31:44;1.30;;;1.17;;
73023;SDS011;61199;47.526;8.538;2023-03-08T13:34:46;1.70;;;1.50;;
73023;SDS011;61199;47.526;8.538;2023-03-08T13:37:22;2.17;;;1.20;;
73023;SDS011;61199;47.526;8.538;2023-03-08T13:39:51;2.90;;;1.30;;
73023;SDS011;61199;47.526;8.538;2023-03-08T13:42:19;2.30;;;1.30;;
73023;SDS011;61199;47.526;8.538;2023-03-08T13:44:53;1.97;;;1.50;;
73023;SDS011;61199;47.526;8.538;2023-03-08T13:47:33;4.07;;;1.40;;
73023;SDS011;61199;47.526;8.538;2023-03-08T13:50:02;6.33;;;1.23;;
73023;SDS011;61199;47.526;8.538;2023-03-08T13:52:31;2.57;;;1.60;;
73023;SDS011;61199;47.526;8.538;2023-03-08T13:55:02;2.83;;;1.40;;
73023;SDS011;61199;47.526;8.538;2023-03-08T13:57:32;1.80;;;1.30;;
73023;SDS011;61199;47.526;8.538;2023-03-08T14:02:52;2.97;;;1.40;;
73023;SDS011;61199;47.526;8.538;2023-03-08T14:05:23;2.07;;;1.60;;
73023;SDS011;61199;47.526;8.538;2023-03-08T14:07:55;1.53;;;1.30;;
73023;SDS011;61199;47.526;8.538;2023-03-08T14:10:36;3.50;;;1.50;;
73023;SDS011;61199;47.526;8.538;2023-03-08T14:13:06;1.90;;;1.40;;
73023;SDS011;61199;47.526;8.538;2023-03-08T14:16:01;4.93;;;1.60;;
73023;SDS011;61199;47.526;8.538;2023-03-08T14:18:34;2.17;;;1.30;;
73023;SDS011;61199;47.526;8.538;2023-03-08T14:23:34;2.47;;;1.30;;
73023;SDS011;61199;47.526;8.538;2023-03-08T14:26:05;1.50;;;1.13;;
73023;SDS011;61199;47.526;8.538;2023-03-08T14:28:36;1.77;;;1.40;;
73023;SDS011;61199;47.526;8.538;2023-03-08T14:31:22;2.00;;;1.63;;
73023;SDS011;61199;47.526;8.538;2023-03-08T14:33:54;3.50;;;1.77;;
73023;SDS011;61199;47.526;8.538;2023-03-08T14:36:25;2.37;;;1.80;;
73023;SDS011;61199;47.526;8.538;2023-03-08T14:38:54;2.00;;;1.47;;
73023;SDS011;61199;47.526;8.538;2023-03-08T14:41:30;3.30;;;2.03;;
73023;SDS011;61199;47.526;8.538;2023-03-08T14:43:59;3.80;;;1.73;;
73023;SDS011;61199;47.526;8.538;2023-03-08T14:46:27;5.13;;;1.47;;
73023;SDS011;61199;47.526;8.538;2023-03-08T14:49:02;3.53;;;1.50;;
73023;SDS011;61199;47.526;8.538;2023-03-08T14:51:40;3.10;;;1.70;;
73023;SDS011;61199;47.526;8.538;2023-03-08T14:54:30;1.83;;;1.40;;
73023;SDS011;61199;47.526;8.538;2023-03-08T14:57:04;2.47;;;1.70;;
73023;SDS011;61199;47.526;8.538;2023-03-08T14:59:43;2.50;;;1.70;;
73023;SDS011;61199;47.526;8.538;2023-03-08T15:02:10;1.90;;;1.57;;
73023;SDS011;61199;47.526;8.538;2023-03-08T15:04:38;3.20;;;1.60;;
73023;SDS011;61199;47.526;8.538;2023-03-08T15:07:05;3.77;;;1.80;;
73023;SDS011;61199;47.526;8.538;2023-03-08T15:09:32;2.40;;;1.70;;
73023;SDS011;61199;47.526;8.538;2023-03-08T15:11:59;3.03;;;1.77;;
73023;SDS011;61199;47.526;8.538;2023-03-08T15:14:26;2.57;;;1.60;;
73023;SDS011;61199;47.526;8.538;2023-03-08T15:16:53;4.30;;;2.00;;
73023;SDS011;61199;47.526;8.538;2023-03-08T15:19:20;2.80;;;2.00;;
73023;SDS011;61199;47.526;8.538;2023-03-08T15:21:47;3.40;;;1.97;;
73023;SDS011;61199;47.526;8.538;2023-03-08T15:24:14;3.00;;;1.97;;
73023;SDS011;61199;47.526;8.538;2023-03-08T15:26:42;3.50;;;2.23;;
73023;SDS011;61199;47.526;8.538;2023-03-08T15:29:16;3.23;;;1.93;;
73023;SDS011;61199;47.526;8.538;2023-03-08T15:31:48;4.30;;;2.23;;
73023;SDS011;61199;47.526;8.538;2023-03-08T15:34:15;2.20;;;1.50;;
73023;SDS011;61199;47.526;8.538;2023-03-08T15:36:41;2.00;;;1.60;;
73023;SDS011;61199;47.526;8.538;2023-03-08T15:39:10;3.07;;;1.60;;
73023;SDS011;61199;47.526;8.538;2023-03-08T15:41:37;3.90;;;1.60;;
73023;SDS011;61199;47.526;8.538;2023-03-08T15:44:03;3.33;;;1.97;;
73023;SDS011;61199;47.526;8.538;2023-03-08T15:46:30;3.73;;;2.00;;
73023;SDS011;61199;47.526;8.538;2023-03-08T15:48:57;2.63;;;1.83;;
73023;SDS011;61199;47.526;8.538;2023-03-08T15:51:25;5.30;;;2.47;;
73023;SDS011;61199;47.526;8.538;2023-03-08T15:53:55;6.47;;;2.30;;
73023;SDS011;61199;47.526;8.538;2023-03-08T15:56:21;4.73;;;2.60;;
73023;SDS011;61199;47.526;8.538;2023-03-08T15:58:48;6.83;;;2.50;;
73023;SDS011;61199;47.526;8.538;2023-03-08T16:01:14;4.47;;;2.90;;
73023;SDS011;61199;47.526;8.538;2023-03-08T16:03:40;5.00;;;2.77;;
73023;SDS011;61199;47.526;8.538;2023-03-08T16:06:07;5.87;;;3.60;;
73023;SDS011;61199;47.526;8.538;2023-03-08T16:08:35;8.33;;;4.00;;